メインページ
METAR-TAF:

METAR-TAF

空港 :

バマコ, マリ共和国

バマコ・セヌー国際空港

緯度: 12-32N, 経度: 007-57W, 海抜: 380m

現時点の気象観測

当レポートは32分前の23:00(UTC)に作成
南/南東の風 6kt
気温 24°C
湿度 74%
気圧 1017 hPa
視程: 8000m
高度2000ftの雲はほとんどない
高度3000ftの雲はほとんどない, 積乱雲.
激しい雷雨, 小雨

METAR: GABS 232300Z 15006KT 8000 -TSRA FEW020 FEW030CB 24/19 Q1017 BECMG NSW

時間: 23:32 (23:32 UTC)

予報

当レポートは6時間32分前の17:00(UTC)に作成
予報は23日の 18時(UTC)から 24日の 24時(UTC)まで有効
東/南東の風 6kt
視程10km以上
高度2000ftの雲は散在している
23日の 19時(UTC)から 23日の 24時(UTC)まで一時的に
の風 16kt、最大35ktの突風を伴う
視程: 3000m
高度1500ftの千切れ雲あり
高度3000ftの雲は散在している, 積乱雲.
スコール, 激しい雷雨, 雨
確率 40% :
24日の 10時(UTC)から 24日の 16時(UTC)まで一時的に
東/北東の風 18kt、最大35ktの突風を伴う
視程: 2000m
高度1500ftの千切れ雲あり
高度3000ftの雲は散在している, 積乱雲.
スコール, 激しい雷雨, 雨

TAF: GABS 231700Z 2318/2424 12006KT 9999 SCT020 TEMPO 2319/2324 09016G35KT 3000 SQ TSRA BKN015 SCT030CB PROB40 TEMPO 2410/2416 06018G35KT 2000 SQ TSRA BKN015 SCT030CB

4,000以上の空港の気象観測と天気予報(METAR報とTAF報)

利用可能な観測所は地図上に黄色い丸と赤い丸で示す。

丸の上にカーソルを重ねると観測所名を参照できる。

次にクリックすると気象観測と天気予報を参照できる。

マップの切り替え:黒色「×」印の緑ボタンをクリックして拡大、「-」印の緑ボタンをクリックして縮小、緑色の三角印をクリックして隣りの地図に切り替え


METAR-TAF: